Time;durP1;ratioP1;P1;durP2;ratioP2;P2;SDS_P1;SDS_P2;PMS_P1;PMS_P2;Temp;Humidity;BMP_temperature;BMP_pressure;BME280_temperature;BME280_humidity;BME280_pressure;Samples;Min_cycle;Max_cycle;Signal;HPM_P1;HPM_P2
2023/02/02 00:01:41;;;;;;;1.50;1.20;;;;;;;1.10;94.49;97609.96;435498;1255;97759;-39
2023/02/02 00:21:57;;;;;;;1.40;1.30;;;;;;;1.05;94.64;97621.73;435339;1256;97504;-40
2023/02/02 00:32:04;;;;;;;4.60;2.70;;;;;;;1.15;94.83;97625.29;435533;1253;108974;-38
2023/02/02 00:42:09;;;;;;;7.30;4.10;;;;;;;1.22;94.77;97625.09;435357;1256;107178;-40
2023/02/02 00:52:17;;;;;;;6.10;4.00;;;;;;;1.13;94.81;97640.86;435436;1254;97871;-40
2023/02/02 01:02:24;;;;;;;4.90;2.00;;;;;;;0.96;94.48;97640.91;435575;1256;109514;-38
2023/02/02 01:12:32;;;;;;;3.40;2.40;;;;;;;0.90;94.48;97641.82;435506;1255;108849;-40
2023/02/02 01:22:39;;;;;;;4.40;2.40;;;;;;;0.98;94.89;97639.39;435461;1253;97527;-41
2023/02/02 01:32:47;;;;;;;10.90;5.30;;;;;;;1.12;95.16;97650.63;435508;1263;109483;-40
2023/02/02 01:42:54;;;;;;;4.80;3.20;;;;;;;1.30;95.46;97655.98;435298;1251;107419;-39
2023/02/02 01:53:05;;;;;;;8.60;3.30;;;;;;;1.42;95.58;97654.65;435554;1253;97775;-38
2023/02/02 02:03:15;;;;;;;10.00;4.70;;;;;;;1.52;95.61;97648.34;436159;1245;107555;-38
2023/02/02 02:34:31;;;;;;;13.70;6.30;;;;;;;1.76;96.01;97674.88;434848;1254;107333;-39
2023/02/02 02:44:38;;;;;;;21.50;5.70;;;;;;;1.80;95.88;97676.28;435325;1255;97888;-40
2023/02/02 02:54:48;;;;;;;14.70;6.10;;;;;;;1.75;95.87;97674.19;435343;1255;108315;-38
2023/02/02 03:04:55;;;;;;;;;;;;;;;1.75;95.88;97673.48;435288;1255;97754;-39
2023/02/02 03:15:06;;;;;;;39.30;13.60;;;;;;;1.77;95.86;97678.28;435166;1255;109302;-39
2023/02/02 03:25:15;;;;;;;23.20;5.80;;;;;;;1.79;95.88;97667.73;434777;1252;297798;-40
2023/02/02 03:35:22;;;;;;;23.60;8.30;;;;;;;1.83;96.00;97674.08;435188;1255;97512;-40
2023/02/02 03:45:30;;;;;;;13.00;4.10;;;;;;;1.85;95.74;97682.50;435234;1260;107226;-39
2023/02/02 04:05:43;;;;;;;6.70;3.20;;;;;;;1.75;95.86;97677.23;435132;1255;110306;-39
2023/02/02 04:15:56;;;;;;;15.20;4.10;;;;;;;1.73;95.63;97673.45;435095;1251;107607;-39
2023/02/02 04:26:04;;;;;;;19.60;6.70;;;;;;;1.69;95.42;97670.13;435225;1253;97512;-39
2023/02/02 04:36:11;;;;;;;6.70;2.60;;;;;;;1.66;95.51;97658.50;435193;1255;110025;-38
2023/02/02 04:46:19;;;;;;;5.80;2.40;;;;;;;1.67;95.54;97654.13;435117;1253;109258;-38
2023/02/02 04:56:27;;;;;;;13.20;3.50;;;;;;;1.68;95.52;97644.39;435147;1252;97768;-39
2023/02/02 05:06:35;;;;;;;13.90;3.00;;;;;;;1.64;95.65;97638.80;435198;1255;107966;-39
2023/02/02 05:16:43;;;;;;;12.80;3.00;;;;;;;1.54;95.77;97630.35;435182;1255;97889;-39
2023/02/02 05:26:52;;;;;;;16.50;2.90;;;;;;;1.54;95.64;97628.95;435193;1255;97467;-38
2023/02/02 05:36:59;;;;;;;10.80;2.20;;;;;;;1.60;95.68;97624.46;435164;1253;106984;-42
2023/02/02 05:47:05;;;;;;;15.30;2.90;;;;;;;1.65;95.58;97618.35;435065;1252;98005;-39
2023/02/02 05:57:12;;;;;;;8.90;2.80;;;;;;;1.69;95.64;97616.97;435238;1255;111557;-39
2023/02/02 06:07:19;;;;;;;10.80;3.40;;;;;;;1.75;95.74;97611.96;435054;1255;107768;-39
2023/02/02 06:17:26;;;;;;;11.60;3.70;;;;;;;1.76;95.68;97611.36;435189;1255;97900;-38
2023/02/02 06:27:34;;;;;;;11.50;3.10;;;;;;;1.62;95.55;97599.46;435168;1255;109444;-39
2023/02/02 06:37:41;;;;;;;10.40;2.20;;;;;;;1.56;95.32;97590.84;435069;1252;107172;-40
2023/02/02 06:47:49;;;;;;;7.40;2.90;;;;;;;1.48;95.33;97588.30;435151;1255;97886;-40
2023/02/02 06:57:56;;;;;;;10.30;5.40;;;;;;;1.29;95.27;97584.31;435126;1255;112567;-39
2023/02/02 07:08:03;;;;;;;11.10;6.30;;;;;;;1.12;95.34;97568.40;435091;1253;108428;-40
2023/02/02 07:18:10;;;;;;;5.40;3.30;;;;;;;0.99;95.51;97568.36;435195;1255;97597;-40
2023/02/02 07:28:17;;;;;;;7.00;3.00;;;;;;;0.96;95.54;97574.28;435132;1253;109432;-40
2023/02/02 07:38:25;;;;;;;5.50;2.40;;;;;;;0.90;95.70;97585.05;435155;1253;97905;-39
2023/02/02 07:48:29;;;;;;;13.60;4.50;;;;;;;0.91;95.77;97592.02;435213;1255;109478;-41
2023/02/02 07:58:37;;;;;;;22.50;7.40;;;;;;;0.91;96.03;97598.46;435109;1255;108750;-38
2023/02/02 08:08:43;;;;;;;9.50;4.10;;;;;;;0.93;96.07;97605.24;435251;1253;97864;-40
2023/02/02 08:18:51;;;;;;;14.00;5.40;;;;;;;0.98;96.06;97614.85;435167;1252;109919;-40
2023/02/02 08:29:01;;;;;;;21.10;8.20;;;;;;;1.01;96.19;97622.91;435011;1255;96663;-40
2023/02/02 08:39:11;;;;;;;28.00;9.50;;;;;;;1.09;96.13;97630.95;435117;1253;109780;-40
2023/02/02 08:49:18;;;;;;;11.80;6.60;;;;;;;1.25;96.55;97642.13;435123;1255;108217;-40
2023/02/02 08:59:25;;;;;;;8.50;3.90;;;;;;;1.30;96.44;97653.31;435090;1255;98005;-39
2023/02/02 09:09:32;;;;;;;16.80;5.50;;;;;;;1.37;96.74;97657.87;435084;1255;107512;-39
2023/02/02 09:19:39;;;;;;;10.40;3.10;;;;;;;1.54;96.95;97666.86;435202;1255;96659;-38
2023/02/02 09:29:47;;;;;;;5.80;3.00;;;;;;;1.68;97.06;97682.23;435189;1255;110416;-40
2023/02/02 09:39:55;;;;;;;11.90;3.80;;;;;;;1.81;97.05;97702.98;435148;1253;107645;-40
2023/02/02 09:50:02;;;;;;;7.70;2.00;;;;;;;1.95;97.04;97721.92;435067;1253;97937;-39
2023/02/02 10:00:20;;;;;;;4.50;2.30;;;;;;;2.02;97.12;97735.34;435186;1253;109265;-39
2023/02/02 10:10:34;;;;;;;5.30;1.90;;;;;;;2.06;97.30;97749.50;435136;1255;97890;-40
2023/02/02 10:20:47;;;;;;;4.00;2.20;;;;;;;2.10;97.28;97759.50;435145;1255;111038;-40
2023/02/02 10:30:53;;;;;;;5.20;2.90;;;;;;;2.16;97.15;97774.98;435126;1255;108170;-40
2023/02/02 10:40:58;;;;;;;11.40;2.60;;;;;;;2.19;97.09;97791.47;435266;1255;97892;-40
2023/02/02 10:51:12;;;;;;;7.60;2.80;;;;;;;2.18;97.05;97810.73;435149;1255;108650;-39
2023/02/02 11:01:21;;;;;;;10.30;2.90;;;;;;;2.18;97.13;97819.71;435209;1256;97893;-40
2023/02/02 11:11:33;;;;;;;11.00;3.80;;;;;;;2.20;96.98;97829.40;435177;1255;108670;-39
2023/02/02 11:21:40;;;;;;;6.60;3.30;;;;;;;2.24;96.49;97839.15;435096;1255;107673;-38
2023/02/02 11:31:48;;;;;;;4.90;2.60;;;;;;;2.38;96.15;97850.03;435236;1253;97859;-40
2023/02/02 11:41:58;;;;;;;9.60;2.90;;;;;;;2.50;95.43;97864.83;435088;1255;108824;-40
2023/02/02 11:52:15;;;;;;;11.60;4.80;;;;;;;2.68;94.73;97876.05;435200;1264;96669;-41
2023/02/02 12:02:30;;;;;;;9.70;3.30;;;;;;;2.74;94.40;97894.29;435194;1255;109337;-40
2023/02/02 12:12:38;;;;;;;8.10;3.50;;;;;;;2.89;93.52;97913.45;435095;1264;107948;-40
2023/02/02 12:22:54;;;;;;;5.10;3.10;;;;;;;3.00;92.74;97936.52;435206;1255;97877;-41
2023/02/02 12:33:07;;;;;;;5.50;4.00;;;;;;;2.96;91.52;97948.38;435169;1254;109687;-40
2023/02/02 12:43:17;;;;;;;7.80;3.10;;;;;;;2.88;91.05;97957.56;435170;1255;108799;-39
2023/02/02 12:53:29;;;;;;;8.30;3.90;;;;;;;2.90;91.23;97977.85;435194;1264;97884;-39
2023/02/02 13:03:41;;;;;;;20.60;9.10;;;;;;;2.83;91.00;98002.63;435227;1255;109624;-39
2023/02/02 13:13:48;;;;;;;9.60;3.90;;;;;;;2.91;90.43;98010.88;435097;1255;108164;-40
2023/02/02 13:23:59;;;;;;;15.20;5.30;;;;;;;3.11;89.64;98024.20;435229;1254;97485;-39
2023/02/02 13:34:03;;;;;;;;;;;;;;;3.29;89.39;98037.38;435198;1264;109764;-40
2023/02/02 13:44:20;;;;;;;14.80;5.10;;;;;;;3.29;88.91;98057.43;435121;1264;97897;-40
2023/02/02 13:54:51;;;;;;;6.90;3.20;;;;;;;3.15;88.38;98073.96;435289;1257;97896;-40
2023/02/02 14:05:00;;;;;;;11.80;6.10;;;;;;;2.89;87.62;98099.20;435308;1264;110249;-40
2023/02/02 14:15:08;;;;;;;;;;;;;;;2.76;87.33;98112.30;435212;1257;105913;-39
2023/02/02 14:25:54;;;;;;;8.70;3.90;;;;;;;2.69;86.09;98122.87;435217;1264;96645;-40
2023/02/02 14:36:04;;;;;;;15.80;7.30;;;;;;;2.56;85.83;98152.59;435188;1254;112123;-38
2023/02/02 14:46:34;;;;;;;10.30;5.50;;;;;;;2.54;85.25;98176.16;435134;1257;108545;-39
2023/02/02 14:56:48;;;;;;;19.70;8.20;;;;;;;2.43;85.26;98196.23;435225;1254;97924;-39
2023/02/02 15:06:58;;;;;;;12.70;4.90;;;;;;;2.30;84.43;98217.44;435247;1255;110154;-38
2023/02/02 15:17:16;;;;;;;13.60;5.60;;;;;;;2.28;83.91;98241.61;435011;1254;108754;-40
2023/02/02 15:27:24;;;;;;;11.70;6.00;;;;;;;2.17;84.18;98258.24;434862;1257;359545;-39
2023/02/02 15:37:30;;;;;;;8.70;5.00;;;;;;;2.08;83.76;98282.62;435182;1256;96661;-41
2023/02/02 15:47:40;;;;;;;9.90;5.40;;;;;;;2.05;83.25;98307.63;435339;1257;109099;-40
2023/02/02 15:57:51;;;;;;;17.90;7.70;;;;;;;1.94;82.99;98330.01;435253;1253;108688;-40
2023/02/02 16:07:58;;;;;;;16.30;8.10;;;;;;;1.83;82.95;98349.35;435775;1256;97889;-39
2023/02/02 16:18:14;;;;;;;13.80;7.40;;;;;;;1.81;82.99;98367.20;435209;1258;107933;-40
2023/02/02 16:38:33;;;;;;;21.00;9.60;;;;;;;1.71;82.92;98412.70;435128;1257;96669;-40
2023/02/02 16:48:45;;;;;;;15.40;8.10;;;;;;;1.61;83.23;98428.39;435184;1258;110244;-40
2023/02/02 16:58:56;;;;;;;15.80;6.30;;;;;;;1.62;83.42;98449.53;435156;1257;108146;-39
2023/02/02 17:19:21;;;;;;;15.80;8.10;;;;;;;1.43;83.37;98500.70;435226;1256;108898;-40
2023/02/02 17:29:27;;;;;;;13.10;7.90;;;;;;;1.36;83.25;98521.85;435177;1254;108346;-39
2023/02/02 17:39:34;;;;;;;11.70;6.70;;;;;;;1.30;83.56;98543.80;435237;1254;97892;-39
2023/02/02 17:49:41;;;;;;;22.70;9.70;;;;;;;1.23;83.81;98560.23;435337;1255;110441;-39
2023/02/02 17:59:48;;;;;;;25.60;10.10;;;;;;;1.16;84.24;98573.90;435272;1252;108262;-39
2023/02/02 18:09:55;;;;;;;17.00;7.20;;;;;;;1.17;84.31;98594.96;435222;1255;97889;-40
2023/02/02 18:20:04;;;;;;;12.90;6.50;;;;;;;1.17;84.54;98615.48;435204;1254;110368;-39
2023/02/02 18:30:13;;;;;;;12.20;6.10;;;;;;;1.11;84.59;98628.09;435165;1257;107887;-40
2023/02/02 18:40:19;;;;;;;19.20;7.80;;;;;;;1.14;84.49;98630.91;435271;1257;96640;-40
2023/02/02 18:50:26;;;;;;;12.20;6.30;;;;;;;1.13;84.79;98672.64;435271;1255;110300;-39
2023/02/02 19:00:34;;;;;;;15.90;7.00;;;;;;;0.76;85.47;98712.64;435301;1255;109321;-40
2023/02/02 19:10:41;;;;;;;9.00;4.90;;;;;;;0.45;86.19;98734.68;435212;1257;97880;-39
2023/02/02 19:20:49;;;;;;;11.40;5.90;;;;;;;0.44;87.10;98758.77;435171;1255;107625;-40
2023/02/02 19:30:59;;;;;;;13.90;6.70;;;;;;;0.51;88.33;98775.64;435176;1253;97880;-38
2023/02/02 19:51:27;;;;;;;12.40;7.00;;;;;;;0.59;89.36;98803.48;435187;1255;108389;-40
2023/02/02 20:11:41;;;;;;;16.40;9.30;;;;;;;0.59;89.37;98844.92;435241;1255;109296;-39
2023/02/02 20:31:58;;;;;;;6.80;4.50;;;;;;;0.63;89.09;98868.63;435252;1252;97881;-40
2023/02/02 20:42:06;;;;;;;12.10;6.60;;;;;;;0.58;89.12;98887.00;435186;1255;110021;-41
2023/02/02 21:02:24;;;;;;;6.90;4.70;;;;;;;0.54;89.10;98915.30;435200;1252;97976;-38
2023/02/02 21:22:36;;;;;;;17.70;7.90;;;;;;;0.51;89.19;98951.74;435148;1255;107351;-40
2023/02/02 21:32:42;;;;;;;12.60;7.30;;;;;;;0.43;89.13;98964.80;435343;1255;97757;-39
2023/02/02 21:42:49;;;;;;;9.60;7.10;;;;;;;0.45;89.20;98986.02;435276;1254;110623;-39
2023/02/02 21:53:06;;;;;;;8.00;5.60;;;;;;;0.44;89.50;98995.80;435175;1254;108098;-38
2023/02/02 22:03:27;;;;;;;7.00;4.10;;;;;;;0.43;89.43;99003.70;435174;1252;97864;-41
2023/02/02 22:13:32;;;;;;;10.10;4.60;;;;;;;0.40;89.21;99026.02;435329;1255;107497;-38
2023/02/02 22:23:40;;;;;;;8.40;5.70;;;;;;;0.29;89.04;99039.77;435174;1252;97916;-40
2023/02/02 22:33:47;;;;;;;5.10;3.10;;;;;;;0.29;88.98;99039.60;435170;1252;97864;-39
2023/02/02 22:43:53;;;;;;;6.70;3.30;;;;;;;0.30;88.81;99051.48;435180;1255;108396;-39
2023/02/02 22:54:00;;;;;;;14.90;4.90;;;;;;;0.33;88.73;99053.80;435137;1252;96688;-40
2023/02/02 23:04:07;;;;;;;14.20;6.80;;;;;;;0.30;88.64;99059.15;435307;1255;111504;-39
2023/02/02 23:14:15;;;;;;;14.70;5.00;;;;;;;0.19;88.79;99082.21;435217;1255;108838;-38
2023/02/02 23:24:22;;;;;;;9.40;3.50;;;;;;;0.17;88.56;99081.22;435143;1255;96638;-39
2023/02/02 23:34:29;;;;;;;8.90;2.90;;;;;;;0.18;88.34;99085.81;435252;1253;109470;-39
2023/02/02 23:44:36;;;;;;;10.70;4.40;;;;;;;0.19;88.37;99094.79;435137;1255;108338;-40
2023/02/02 23:54:44;;;;;;;10.70;5.40;;;;;;;0.09;88.36;99112.11;435325;1255;97880;-39
